createdAt,value
2022-10-24T00:01:36.197Z,2.35
2022-10-24T00:06:36.490Z,2.35
2022-10-24T00:09:05.021Z,2.40
2022-10-24T00:11:32.655Z,2.42
2022-10-24T00:14:02.064Z,2.22
2022-10-24T00:16:29.937Z,2.13
2022-10-24T00:18:57.687Z,2.33
2022-10-24T00:21:25.359Z,2.20
2022-10-24T00:23:53.247Z,2.35
2022-10-24T00:26:20.856Z,2.03
2022-10-24T00:28:48.574Z,2.95
2022-10-24T00:31:20.051Z,2.08
2022-10-24T00:33:47.878Z,2.10
2022-10-24T00:36:18.232Z,2.90
2022-10-24T00:38:45.904Z,3.00
2022-10-24T00:41:16.008Z,3.45
2022-10-24T00:43:43.704Z,2.85
2022-10-24T00:46:11.881Z,2.95
2022-10-24T00:48:43.709Z,2.80
2022-10-24T00:51:17.432Z,3.10
2022-10-24T00:53:48.589Z,3.35
2022-10-24T00:56:20.507Z,3.13
2022-10-24T00:58:51.043Z,3.17
2022-10-24T01:01:19.061Z,3.08
2022-10-24T01:03:48.099Z,2.92
2022-10-24T01:06:30.318Z,3.00
2022-10-24T01:09:10.184Z,3.08
2022-10-24T01:11:51.882Z,3.53
2022-10-24T01:14:31.187Z,2.97
2022-10-24T01:17:08.470Z,2.72
2022-10-24T01:20:08.734Z,3.15
2022-10-24T01:22:46.988Z,3.40
2022-10-24T01:25:19.386Z,3.40
2022-10-24T01:28:02.010Z,3.35
2022-10-24T01:30:35.780Z,2.78
2022-10-24T01:33:07.717Z,3.92
2022-10-24T01:35:40.433Z,3.20
2022-10-24T01:38:14.435Z,3.28
2022-10-24T01:40:50.698Z,4.40
2022-10-24T01:43:23.116Z,2.85
2022-10-24T01:45:58.193Z,2.70
2022-10-24T01:48:27.266Z,2.95
2022-10-24T01:50:57.080Z,3.35
2022-10-24T01:53:28.788Z,3.30
2022-10-24T01:55:57.447Z,3.10
2022-10-24T01:58:25.133Z,2.90
2022-10-24T02:00:59.582Z,2.50
2022-10-24T02:03:32.297Z,3.00
2022-10-24T02:06:04.439Z,2.88
2022-10-24T02:08:35.556Z,2.90
2022-10-24T02:11:07.433Z,2.45
2022-10-24T02:13:40.625Z,2.47
2022-10-24T02:16:10.633Z,1.98
2022-10-24T02:18:40.550Z,2.53
2022-10-24T02:21:18.714Z,2.53
2022-10-24T02:23:52.973Z,2.47
2022-10-24T02:26:27.841Z,2.25
2022-10-24T02:28:59.534Z,2.13
2022-10-24T02:31:34.460Z,2.60
2022-10-24T02:34:03.143Z,3.03
2022-10-24T02:36:32.458Z,3.10
2022-10-24T02:41:58.788Z,2.75
2022-10-24T02:44:29.194Z,2.20
2022-10-24T02:47:02.116Z,2.50
2022-10-24T02:49:29.903Z,2.63
2022-10-24T02:51:57.854Z,2.17
2022-10-24T02:54:25.474Z,2.17
2022-10-24T02:56:56.101Z,2.60
2022-10-24T02:59:23.723Z,2.05
2022-10-24T03:01:51.393Z,2.60
2022-10-24T03:04:20.433Z,2.70
2022-10-24T03:06:48.074Z,2.25
2022-10-24T03:09:15.720Z,2.00
2022-10-24T03:11:43.589Z,2.42
2022-10-24T03:14:11.236Z,2.30
2022-10-24T03:16:38.914Z,2.20
2022-10-24T03:19:08.424Z,2.75
2022-10-24T03:21:37.558Z,2.83
2022-10-24T03:24:05.614Z,2.80
2022-10-24T03:26:33.404Z,2.38
2022-10-24T03:29:01.290Z,2.15
2022-10-24T03:31:30.685Z,2.20
2022-10-24T03:33:58.661Z,2.50
2022-10-24T03:36:27.061Z,2.53
2022-10-24T03:38:56.090Z,2.72
2022-10-24T03:41:23.729Z,1.92
2022-10-24T03:43:51.468Z,2.03
2022-10-24T03:46:19.111Z,2.45
2022-10-24T03:48:46.766Z,1.70
2022-10-24T03:51:14.440Z,1.90
2022-10-24T03:53:42.099Z,1.88
2022-10-24T03:56:11.168Z,2.40
2022-10-24T03:58:38.814Z,2.25
2022-10-24T04:01:06.574Z,2.17
2022-10-24T04:03:34.280Z,2.60
2022-10-24T04:06:02.106Z,2.67
2022-10-24T04:08:29.738Z,2.30
2022-10-24T04:10:57.389Z,2.40
2022-10-24T04:13:26.462Z,2.08
2022-10-24T04:15:54.186Z,1.85
2022-10-24T04:18:21.910Z,2.67
2022-10-24T04:20:49.548Z,2.33
2022-10-24T04:23:17.378Z,2.25
2022-10-24T04:25:45.135Z,2.50
2022-10-24T04:28:12.931Z,2.35
2022-10-24T04:33:14.602Z,2.40
2022-10-24T04:35:48.569Z,2.65
2022-10-24T04:38:16.258Z,2.88
2022-10-24T04:40:46.822Z,3.05
2022-10-24T04:43:14.481Z,2.75
2022-10-24T04:45:43.469Z,3.30
2022-10-24T04:48:11.321Z,3.45
2022-10-24T04:50:40.900Z,3.20
2022-10-24T04:53:09.293Z,2.90
2022-10-24T04:58:10.150Z,3.58
2022-10-24T05:00:37.890Z,3.55
2022-10-24T05:03:06.909Z,3.85
2022-10-24T05:05:34.564Z,3.30
2022-10-24T05:08:02.179Z,3.72
2022-10-24T05:10:29.851Z,3.45
2022-10-24T05:12:57.500Z,4.47
2022-10-24T05:15:25.454Z,4.20
2022-10-24T05:17:53.082Z,3.30
2022-10-24T05:20:22.071Z,4.00
2022-10-24T05:22:49.795Z,4.05
2022-10-24T05:25:17.690Z,4.47
2022-10-24T05:27:45.324Z,4.18
2022-10-24T05:30:13.797Z,4.53
2022-10-24T05:32:41.657Z,4.28
2022-10-24T05:35:10.668Z,4.00
2022-10-24T05:37:39.830Z,3.78
2022-10-24T05:40:09.946Z,4.30
2022-10-24T05:42:38.663Z,4.10
2022-10-24T05:45:07.263Z,3.38
2022-10-24T05:47:35.011Z,4.22
2022-10-24T05:50:02.826Z,3.50
2022-10-24T05:52:30.504Z,3.88
2022-10-24T05:55:08.003Z,3.97
2022-10-24T05:57:36.758Z,3.47
2022-10-24T06:00:06.458Z,3.80
2022-10-24T06:02:34.261Z,3.58
2022-10-24T06:05:02.209Z,3.25
2022-10-24T06:07:30.308Z,2.83
2022-10-24T06:09:59.449Z,3.70
2022-10-24T06:12:27.203Z,3.50
2022-10-24T06:14:57.631Z,3.17
2022-10-24T06:17:25.386Z,3.13
2022-10-24T06:19:53.133Z,3.33
2022-10-24T06:22:23.938Z,3.13
2022-10-24T06:24:51.771Z,3.45
2022-10-24T06:27:20.801Z,3.28
2022-10-24T06:29:48.491Z,2.97
2022-10-24T06:32:16.123Z,2.97
2022-10-24T06:34:43.769Z,3.13
2022-10-24T06:37:11.625Z,3.30
2022-10-24T06:39:39.329Z,2.88
2022-10-24T06:42:07.083Z,2.92
2022-10-24T06:44:36.609Z,2.65
2022-10-24T06:47:04.375Z,2.75
2022-10-24T06:49:32.073Z,3.08
2022-10-24T06:51:59.773Z,3.17
2022-10-24T06:54:30.134Z,2.60
2022-10-24T06:56:58.255Z,2.60
2022-10-24T06:59:26.277Z,2.75
2022-10-24T07:01:55.372Z,2.60
2022-10-24T07:04:23.193Z,2.22
2022-10-24T07:06:50.918Z,2.78
2022-10-24T07:09:18.832Z,2.92
2022-10-24T07:11:46.961Z,2.17
2022-10-24T07:14:14.726Z,2.88
2022-10-24T07:16:42.364Z,2.58
2022-10-24T07:19:12.134Z,2.80
2022-10-24T07:21:39.867Z,3.13
2022-10-24T07:24:08.643Z,2.22
2022-10-24T07:26:36.368Z,2.35
2022-10-24T07:29:04.800Z,2.15
2022-10-24T07:31:35.610Z,2.63
2022-10-24T07:34:05.232Z,2.28
2022-10-24T07:36:34.759Z,3.03
2022-10-24T07:39:03.037Z,2.80
2022-10-24T07:41:33.079Z,1.80
2022-10-24T07:44:02.271Z,2.30
2022-10-24T07:46:30.895Z,2.22
2022-10-24T07:48:58.735Z,2.03
2022-10-24T07:51:28.530Z,2.38
2022-10-24T07:53:58.043Z,2.20
2022-10-24T07:56:25.915Z,2.20
2022-10-24T07:58:56.523Z,2.20
2022-10-24T08:01:26.779Z,2.20
2022-10-24T08:03:54.850Z,2.67
2022-10-24T08:06:25.310Z,2.35
2022-10-24T08:08:53.098Z,2.38
2022-10-24T08:11:24.094Z,2.22
2022-10-24T08:13:53.189Z,2.88
2022-10-24T08:16:23.031Z,2.80
2022-10-24T08:18:52.056Z,2.80
2022-10-24T08:21:21.383Z,2.80
2022-10-24T08:23:51.175Z,2.83
2022-10-24T08:26:21.525Z,3.03
2022-10-24T08:28:51.055Z,3.13
2022-10-24T08:31:21.166Z,3.17
2022-10-24T08:33:49.630Z,3.33
2022-10-24T08:36:21.751Z,3.30
2022-10-24T08:38:49.450Z,3.08
2022-10-24T08:41:25.196Z,3.40
2022-10-24T08:43:54.529Z,3.15
2022-10-24T08:46:38.155Z,3.08
2022-10-24T08:49:16.145Z,3.05
2022-10-24T08:51:48.727Z,2.60
2022-10-24T08:54:22.690Z,3.40
2022-10-24T08:56:52.942Z,3.25
2022-10-24T08:59:22.275Z,2.97
2022-10-24T09:01:53.736Z,3.13
2022-10-24T09:04:25.995Z,3.13
2022-10-24T09:06:56.114Z,3.60
2022-10-24T09:09:29.694Z,3.15
2022-10-24T09:12:02.496Z,3.88
2022-10-24T09:14:33.021Z,5.70
2022-10-24T09:17:04.209Z,4.97
2022-10-24T09:19:33.718Z,4.80
2022-10-24T09:22:02.349Z,7.38
2022-10-24T09:24:36.601Z,7.50
2022-10-24T09:27:06.892Z,4.60
2022-10-24T09:29:35.984Z,3.63
2022-10-24T09:32:04.553Z,3.30
2022-10-24T09:34:32.206Z,3.13
2022-10-24T09:36:59.901Z,3.15
2022-10-24T09:39:30.935Z,3.42
2022-10-24T09:41:59.982Z,2.88
2022-10-24T09:44:41.030Z,2.83
2022-10-24T09:47:26.150Z,2.85
2022-10-24T09:49:54.083Z,2.87
2022-10-24T09:52:24.028Z,3.65
2022-10-24T09:55:07.767Z,3.25
2022-10-24T09:57:41.053Z,3.33
2022-10-24T10:00:22.527Z,2.85
2022-10-24T10:02:59.520Z,3.40
2022-10-24T10:05:27.270Z,3.13
2022-10-24T10:07:54.946Z,3.10
2022-10-24T10:10:35.038Z,2.90
2022-10-24T10:13:18.984Z,2.70
2022-10-24T10:15:53.244Z,3.80
2022-10-24T10:18:28.029Z,3.47
2022-10-24T10:21:05.202Z,3.13
2022-10-24T10:23:36.241Z,3.45
2022-10-24T10:26:17.428Z,3.10
2022-10-24T10:28:52.443Z,3.50
2022-10-24T10:31:27.088Z,3.50
2022-10-24T10:34:21.362Z,2.70
2022-10-24T10:37:05.512Z,3.35
2022-10-24T10:39:48.811Z,3.20
2022-10-24T10:42:22.625Z,3.10
2022-10-24T10:45:01.487Z,3.40
2022-10-24T10:47:43.494Z,3.35
2022-10-24T10:50:26.394Z,3.38
2022-10-24T10:53:00.009Z,4.32
2022-10-24T10:55:36.154Z,3.67
2022-10-24T10:58:16.877Z,4.18
2022-10-24T11:00:58.189Z,4.10
2022-10-24T11:03:38.444Z,3.50
2022-10-24T11:06:23.295Z,3.67
2022-10-24T11:09:08.479Z,3.95
2022-10-24T11:11:42.637Z,3.15
2022-10-24T11:14:23.485Z,2.83
2022-10-24T11:16:54.591Z,3.00
2022-10-24T11:19:30.103Z,3.10
2022-10-24T11:24:28.476Z,3.28
2022-10-24T11:27:03.142Z,3.30
2022-10-24T11:29:34.394Z,3.50
2022-10-24T11:32:07.180Z,3.17
2022-10-24T11:34:47.674Z,2.85
2022-10-24T11:37:19.959Z,3.15
2022-10-24T11:39:53.660Z,3.60
2022-10-24T11:42:28.285Z,2.85
2022-10-24T11:45:02.385Z,3.73
2022-10-24T11:47:47.503Z,2.95
2022-10-24T11:50:26.613Z,2.77
2022-10-24T11:53:05.014Z,2.80
2022-10-24T11:55:40.756Z,2.67
2022-10-24T11:58:17.301Z,3.10
2022-10-24T12:01:08.843Z,3.00
2022-10-24T12:04:03.491Z,2.88
2022-10-24T12:06:52.803Z,3.30
2022-10-24T12:09:44.707Z,3.53
2022-10-24T12:12:48.016Z,3.13
2022-10-24T12:15:37.674Z,3.40
2022-10-24T12:18:24.127Z,3.40
2022-10-24T12:20:53.695Z,3.20
2022-10-24T12:23:27.455Z,2.75
2022-10-24T12:26:06.857Z,3.00
2022-10-24T12:28:35.847Z,3.15
2022-10-24T12:31:25.324Z,2.90
2022-10-24T12:34:34.401Z,3.00
2022-10-24T12:37:08.190Z,3.10
2022-10-24T12:39:39.373Z,3.00
2022-10-24T12:42:15.518Z,2.80
2022-10-24T12:44:47.392Z,2.85
2022-10-24T12:47:36.654Z,2.90
2022-10-24T12:50:41.997Z,3.05
2022-10-24T12:53:35.882Z,3.60
2022-10-24T12:56:22.714Z,2.92
2022-10-24T12:59:05.529Z,3.40
2022-10-24T13:01:35.654Z,2.95
2022-10-24T13:04:40.159Z,2.50
2022-10-24T13:07:29.366Z,2.22
2022-10-24T13:10:10.590Z,3.10
2022-10-24T13:12:59.579Z,2.83
2022-10-24T13:15:36.883Z,2.65
2022-10-24T13:18:19.542Z,2.38
2022-10-24T13:20:50.196Z,2.85
2022-10-24T13:23:22.158Z,2.75
2022-10-24T13:25:51.884Z,2.45
2022-10-24T13:28:40.633Z,3.15
2022-10-24T13:31:40.786Z,2.90
2022-10-24T13:34:16.687Z,2.55
2022-10-24T13:36:46.405Z,2.78
2022-10-24T13:39:19.415Z,2.70
2022-10-24T13:41:51.009Z,2.78
2022-10-24T13:44:27.814Z,2.90
2022-10-24T13:47:01.818Z,2.80
2022-10-24T13:49:32.788Z,3.10
2022-10-24T13:52:07.919Z,2.95
2022-10-24T13:54:39.064Z,2.80
2022-10-24T13:57:25.318Z,3.00
2022-10-24T14:00:00.012Z,2.28
2022-10-24T14:02:32.415Z,3.10
2022-10-24T14:05:01.559Z,2.30
2022-10-24T14:07:31.099Z,2.75
2022-10-24T14:10:03.665Z,2.63
2022-10-24T14:12:34.184Z,2.30
2022-10-24T14:15:03.852Z,2.63
2022-10-24T14:17:33.641Z,2.60
2022-10-24T14:20:03.585Z,3.33
2022-10-24T14:22:39.696Z,3.50
2022-10-24T14:25:08.055Z,3.03
2022-10-24T14:27:36.513Z,3.33
2022-10-24T14:30:06.722Z,3.70
2022-10-24T14:32:34.441Z,3.63
2022-10-24T14:35:03.109Z,3.33
2022-10-24T14:37:34.328Z,3.05
2022-10-24T14:40:02.739Z,2.83
2022-10-24T14:42:31.793Z,3.03
2022-10-24T14:45:00.334Z,3.00
2022-10-24T14:47:31.929Z,2.40
2022-10-24T14:49:59.793Z,2.80
2022-10-24T14:52:32.125Z,2.58
2022-10-24T14:55:04.392Z,2.50
2022-10-24T14:57:34.907Z,3.25
2022-10-24T15:00:08.335Z,2.92
2022-10-24T15:02:43.183Z,3.00
2022-10-24T15:05:31.160Z,2.70
2022-10-24T15:08:22.745Z,2.70
2022-10-24T15:11:01.661Z,2.75
2022-10-24T15:13:33.657Z,2.13
2022-10-24T15:16:06.735Z,1.75
2022-10-24T15:18:43.538Z,1.75
2022-10-24T15:21:16.100Z,1.90
2022-10-24T15:23:47.947Z,1.30
2022-10-24T15:26:20.799Z,1.92
2022-10-24T15:28:50.730Z,1.85
2022-10-24T15:31:20.399Z,1.73
2022-10-24T15:33:49.880Z,1.67
2022-10-24T15:36:23.634Z,1.30
2022-10-24T15:38:56.003Z,1.77
2022-10-24T15:41:24.014Z,1.27
2022-10-24T15:43:51.814Z,1.10
2022-10-24T15:46:19.548Z,1.20
2022-10-24T15:48:47.215Z,1.17
2022-10-24T15:51:18.462Z,1.30
2022-10-24T15:53:47.977Z,1.10
2022-10-24T15:56:15.723Z,1.38
2022-10-24T15:58:43.872Z,1.00
2022-10-24T16:01:23.152Z,1.80
2022-10-24T16:03:50.951Z,1.00
2022-10-24T16:06:20.825Z,1.38
2022-10-24T16:08:48.653Z,1.58
2022-10-24T16:11:16.616Z,1.60
2022-10-24T16:13:44.594Z,0.90
2022-10-24T16:16:12.462Z,0.82
2022-10-24T16:18:40.151Z,1.50
2022-10-24T16:21:07.916Z,1.27
2022-10-24T16:23:36.977Z,2.92
2022-10-24T16:26:04.704Z,1.77
2022-10-24T16:28:32.387Z,1.48
2022-10-24T16:31:00.085Z,1.30
2022-10-24T16:33:27.779Z,1.20
2022-10-24T16:35:55.463Z,1.75
2022-10-24T16:38:23.151Z,1.80
2022-10-24T16:40:54.013Z,1.10
2022-10-24T16:43:22.046Z,1.50
2022-10-24T16:45:57.623Z,1.60
2022-10-24T16:50:53.223Z,1.50
2022-10-24T16:53:21.748Z,1.70
2022-10-24T16:55:50.479Z,1.75
2022-10-24T16:58:23.044Z,2.38
2022-10-24T17:00:50.930Z,2.42
2022-10-24T17:03:18.684Z,2.17
2022-10-24T17:05:49.808Z,1.98
2022-10-24T17:08:17.479Z,2.13
2022-10-24T17:10:45.260Z,2.65
2022-10-24T17:13:12.963Z,2.38
2022-10-24T17:15:42.322Z,1.60
2022-10-24T17:18:11.510Z,1.48
2022-10-24T17:20:43.373Z,1.58
2022-10-24T17:23:12.906Z,1.42
2022-10-24T17:25:44.065Z,1.27
2022-10-24T17:28:16.793Z,1.50
2022-10-24T17:30:48.795Z,1.45
2022-10-24T17:33:16.747Z,1.23
2022-10-24T17:35:48.545Z,1.25
2022-10-24T17:38:33.190Z,1.77
2022-10-24T17:41:14.020Z,2.60
2022-10-24T17:43:42.157Z,2.50
2022-10-24T17:46:14.158Z,2.45
2022-10-24T17:48:41.989Z,3.17
2022-10-24T17:51:12.286Z,2.45
2022-10-24T17:53:39.978Z,3.15
2022-10-24T17:56:08.581Z,4.35
2022-10-24T17:58:36.404Z,3.97
2022-10-24T18:01:04.155Z,4.15
2022-10-24T18:03:33.893Z,3.03
2022-10-24T18:06:03.226Z,3.28
2022-10-24T18:08:34.223Z,3.55
2022-10-24T18:11:02.461Z,2.15
2022-10-24T18:13:30.450Z,2.35
2022-10-24T18:15:58.122Z,2.65
2022-10-24T18:18:25.989Z,1.88
2022-10-24T18:21:05.874Z,1.55
2022-10-24T18:23:35.241Z,1.60
2022-10-24T18:26:07.568Z,2.38
2022-10-24T18:28:37.960Z,4.40
2022-10-24T18:31:09.795Z,3.50
2022-10-24T18:33:37.719Z,2.10
2022-10-24T18:36:08.978Z,2.50
2022-10-24T18:38:37.322Z,1.70
2022-10-24T18:41:05.478Z,1.40
2022-10-24T18:43:33.478Z,1.48
2022-10-24T18:46:01.904Z,1.30
2022-10-24T18:48:30.278Z,1.48
2022-10-24T18:50:58.377Z,1.20
2022-10-24T18:53:34.081Z,1.23
2022-10-24T18:56:02.023Z,1.45
2022-10-24T18:58:29.805Z,1.40
2022-10-24T19:00:59.939Z,1.30
2022-10-24T19:03:33.605Z,1.17
2022-10-24T19:06:11.673Z,1.58
2022-10-24T19:08:41.078Z,1.05
2022-10-24T19:13:42.982Z,1.35
2022-10-24T19:16:16.334Z,1.20
2022-10-24T19:18:49.223Z,1.45
2022-10-24T19:21:19.569Z,1.33
2022-10-24T19:23:49.313Z,1.10
2022-10-24T19:26:17.211Z,1.25
2022-10-24T19:28:45.310Z,1.30
2022-10-24T19:31:14.844Z,1.30
2022-10-24T19:33:42.563Z,1.23
2022-10-24T19:36:14.327Z,1.40
2022-10-24T19:38:44.793Z,1.17
2022-10-24T19:41:14.037Z,1.70
2022-10-24T19:43:41.727Z,1.15
2022-10-24T19:46:24.925Z,1.20
2022-10-24T19:48:53.364Z,1.50
2022-10-24T19:51:22.995Z,1.23
2022-10-24T19:53:52.536Z,1.20
2022-10-24T19:56:25.267Z,1.30
2022-10-24T19:58:53.920Z,1.23
2022-10-24T20:01:23.714Z,1.10
2022-10-24T20:03:52.412Z,1.05
2022-10-24T20:06:20.367Z,1.10
2022-10-24T20:08:49.972Z,1.15
2022-10-24T20:11:20.323Z,1.08
2022-10-24T20:13:50.625Z,1.45
2022-10-24T20:16:18.934Z,1.00
2022-10-24T20:18:47.689Z,1.00
2022-10-24T20:21:18.628Z,1.10
2022-10-24T20:23:47.852Z,0.95
2022-10-24T20:26:17.543Z,0.90
2022-10-24T20:28:47.226Z,1.08
2022-10-24T20:31:24.750Z,1.42
2022-10-24T20:33:53.304Z,1.40
2022-10-24T20:36:23.438Z,1.17
2022-10-24T20:38:51.253Z,0.98
2022-10-24T20:41:18.931Z,1.30
2022-10-24T20:43:46.719Z,1.83
2022-10-24T20:46:14.821Z,3.70
2022-10-24T20:48:43.964Z,4.03
2022-10-24T20:51:13.482Z,4.82
2022-10-24T20:53:42.492Z,3.83
2022-10-24T20:56:13.446Z,4.15
2022-10-24T20:58:42.783Z,4.35
2022-10-24T21:01:13.413Z,2.20
2022-10-24T21:03:43.324Z,2.70
2022-10-24T21:06:16.859Z,3.08
2022-10-24T21:08:48.448Z,1.90
2022-10-24T21:11:17.414Z,1.83
2022-10-24T21:13:46.492Z,2.42
2022-10-24T21:16:17.527Z,1.63
2022-10-24T21:18:46.605Z,1.50
2022-10-24T21:21:16.169Z,1.90
2022-10-24T21:23:50.721Z,1.48
2022-10-24T21:26:19.343Z,2.03
2022-10-24T21:28:47.039Z,1.60
2022-10-24T21:31:16.403Z,1.98
2022-10-24T21:33:44.581Z,1.63
2022-10-24T21:36:15.433Z,1.90
2022-10-24T21:38:43.690Z,2.47
2022-10-24T21:41:11.630Z,1.52
2022-10-24T21:43:41.361Z,1.55
2022-10-24T21:46:11.012Z,1.20
2022-10-24T21:48:40.344Z,1.60
2022-10-24T21:51:10.889Z,1.50
2022-10-24T21:53:41.121Z,1.55
2022-10-24T21:56:10.874Z,1.30
2022-10-24T21:58:39.489Z,1.35
2022-10-24T22:01:11.762Z,1.35
2022-10-24T22:03:40.125Z,1.67
2022-10-24T22:06:08.541Z,1.92
2022-10-24T22:08:36.151Z,1.52
2022-10-24T22:11:06.742Z,1.58
2022-10-24T22:13:35.837Z,2.03
2022-10-24T22:16:04.347Z,1.83
2022-10-24T22:18:33.803Z,1.50
2022-10-24T22:21:02.983Z,1.77
2022-10-24T22:23:31.249Z,1.70
2022-10-24T22:26:01.121Z,1.63
2022-10-24T22:28:30.121Z,1.60
2022-10-24T22:30:58.310Z,1.42
2022-10-24T22:33:34.136Z,1.50
2022-10-24T22:36:07.592Z,1.65
2022-10-24T22:38:38.214Z,1.48
2022-10-24T22:41:06.394Z,1.40
2022-10-24T22:43:36.171Z,1.38
2022-10-24T22:46:12.419Z,1.40
2022-10-24T22:48:47.811Z,1.63
2022-10-24T22:51:17.317Z,1.90
2022-10-24T22:53:45.672Z,1.60
2022-10-24T22:56:17.124Z,1.70
2022-10-24T23:04:58.244Z,2.05
2022-10-24T23:07:28.146Z,1.92
2022-10-24T23:09:57.236Z,2.30
2022-10-24T23:12:25.421Z,1.77
2022-10-24T23:14:54.323Z,1.73
2022-10-24T23:17:24.752Z,1.85
2022-10-24T23:19:55.225Z,1.65
2022-10-24T23:22:25.379Z,1.83
2022-10-24T23:24:55.058Z,2.28
2022-10-24T23:27:33.778Z,2.08
2022-10-24T23:30:02.571Z,1.73
2022-10-24T23:32:35.297Z,1.80
2022-10-24T23:35:05.361Z,1.65
2022-10-24T23:37:35.473Z,1.92
2022-10-24T23:40:13.305Z,2.60
2022-10-24T23:42:41.819Z,6.18
2022-10-24T23:45:13.275Z,4.05
2022-10-24T23:47:58.929Z,3.58
2022-10-24T23:50:35.266Z,2.80
2022-10-24T23:53:24.726Z,3.13
2022-10-24T23:55:53.117Z,6.72
2022-10-24T23:58:21.163Z,4.68
